Time;durP1;ratioP1;P1;durP2;ratioP2;P2;SDS_P1;SDS_P2;PMS_P1;PMS_P2;Temp;Humidity;BMP_temperature;BMP_pressure;BME280_temperature;BME280_humidity;BME280_pressure;Samples;Min_cycle;Max_cycle;Signal;HPM_P1;HPM_P2
2023/11/14 00:00:25;;;;;;;36.53;22.73;;;;;;;;;;5114164;28;20489;-77
2023/11/14 00:02:52;;;;;;;20.67;18.47;;;;;;;;;;5113826;28;20926;-77
2023/11/14 00:05:19;;;;;;;27.20;19.10;;;;;;;;;;5113182;28;20448;-76
2023/11/14 00:07:46;;;;;;;27.27;20.77;;;;;;;;;;5114142;28;20463;-77
2023/11/14 00:10:13;;;;;;;25.47;20.47;;;;;;;;;;5113555;28;20939;-76
2023/11/14 00:12:41;;;;;;;19.90;18.13;;;;;;;;;;5114044;28;20492;-76
2023/11/14 00:15:08;;;;;;;25.53;19.43;;;;;;;;;;5113421;28;20766;-76
2023/11/14 00:17:37;;;;;;;21.67;19.50;;;;;;;;;;5113722;28;20467;-77
2023/11/14 00:20:06;;;;;;;30.17;20.17;;;;;;;;;;5113748;28;20539;-76
2023/11/14 00:22:33;;;;;;;29.07;20.63;;;;;;;;;;5113556;28;21216;-76
2023/11/14 00:25:01;;;;;;;20.73;18.90;;;;;;;;;;5113003;28;20451;-75
2023/11/14 00:27:28;;;;;;;27.43;21.37;;;;;;;;;;5113862;28;20809;-76
2023/11/14 00:29:55;;;;;;;25.10;20.47;;;;;;;;;;5113440;28;20440;-77
2023/11/14 00:32:22;;;;;;;25.50;19.40;;;;;;;;;;5112370;28;21070;-76
2023/11/14 00:34:51;;;;;;;20.07;18.47;;;;;;;;;;5112466;28;20951;-76
2023/11/14 00:37:18;;;;;;;30.70;21.17;;;;;;;;;;5113228;28;20483;-76
2023/11/14 00:39:45;;;;;;;28.13;18.80;;;;;;;;;;5113358;28;20439;-76
2023/11/14 00:42:13;;;;;;;21.37;19.10;;;;;;;;;;5112704;28;20959;-77
2023/11/14 00:44:40;;;;;;;20.90;18.67;;;;;;;;;;5112461;28;20447;-77
2023/11/14 00:47:08;;;;;;;22.93;19.60;;;;;;;;;;5112320;28;20967;-77
2023/11/14 00:49:35;;;;;;;20.90;18.80;;;;;;;;;;5112729;28;20444;-77
2023/11/14 00:52:04;;;;;;;22.83;19.50;;;;;;;;;;5112569;28;20469;-76
2023/11/14 00:54:32;;;;;;;19.77;17.93;;;;;;;;;;5112041;28;20459;-76
2023/11/14 00:56:59;;;;;;;34.17;21.97;;;;;;;;;;5112899;28;20463;-76
2023/11/14 00:59:26;;;;;;;26.03;22.13;;;;;;;;;;5112983;28;20791;-76
2023/11/14 01:01:54;;;;;;;25.17;19.43;;;;;;;;;;5112715;28;20459;-76
2023/11/14 01:04:21;;;;;;;21.00;19.30;;;;;;;;;;5111139;28;20458;-76
2023/11/14 01:06:48;;;;;;;21.53;19.27;;;;;;;;;;5112693;28;20524;-76
2023/11/14 01:09:17;;;;;;;20.33;18.40;;;;;;;;;;5113114;28;20455;-76
2023/11/14 01:11:44;;;;;;;21.37;18.63;;;;;;;;;;5112739;28;20859;-78
2023/11/14 01:14:11;;;;;;;22.20;19.47;;;;;;;;;;5112288;28;20471;-77
2023/11/14 01:16:38;;;;;;;26.63;20.03;;;;;;;;;;5112822;28;20444;-76
2023/11/14 01:19:05;;;;;;;23.97;19.47;;;;;;;;;;5111464;28;20999;-77
2023/11/14 01:21:32;;;;;;;22.30;19.93;;;;;;;;;;5112521;28;20800;-76
2023/11/14 01:23:59;;;;;;;36.90;20.83;;;;;;;;;;5111242;28;20571;-77
2023/11/14 01:26:33;;;;;;;25.00;20.80;;;;;;;;;;5112090;28;20437;-77
2023/11/14 01:29:00;;;;;;;33.40;19.10;;;;;;;;;;5111791;28;20464;-76
2023/11/14 01:31:28;;;;;;;32.13;22.00;;;;;;;;;;5112120;28;20479;-76
2023/11/14 01:33:55;;;;;;;25.17;22.20;;;;;;;;;;5111487;28;20481;-76
2023/11/14 01:36:24;;;;;;;19.57;17.90;;;;;;;;;;5111819;28;20440;-75
2023/11/14 01:38:51;;;;;;;20.50;18.47;;;;;;;;;;5112085;28;20554;-76
2023/11/14 01:41:18;;;;;;;24.50;18.37;;;;;;;;;;5111879;28;20422;-78
2023/11/14 01:43:46;;;;;;;24.00;20.27;;;;;;;;;;5111636;28;20439;-77
2023/11/14 01:46:15;;;;;;;26.90;19.90;;;;;;;;;;5110496;28;20801;-76
2023/11/14 01:48:42;;;;;;;25.77;21.37;;;;;;;;;;5111591;28;20555;-77
2023/11/14 01:51:09;;;;;;;18.87;17.47;;;;;;;;;;5111706;28;20522;-76
2023/11/14 01:53:37;;;;;;;22.83;19.20;;;;;;;;;;5111278;28;20469;-78
2023/11/14 01:56:04;;;;;;;22.47;20.00;;;;;;;;;;5110104;28;20468;-78
2023/11/14 01:58:31;;;;;;;36.53;23.30;;;;;;;;;;5111568;28;20570;-76
2023/11/14 02:01:00;;;;;;;26.17;20.20;;;;;;;;;;5111552;28;20451;-76
2023/11/14 02:03:27;;;;;;;22.00;19.67;;;;;;;;;;5111504;28;20418;-77
2023/11/14 02:05:55;;;;;;;21.30;19.40;;;;;;;;;;5110659;28;20452;-76
2023/11/14 02:08:22;;;;;;;24.67;19.00;;;;;;;;;;5110075;28;20467;-76
2023/11/14 02:10:49;;;;;;;19.97;18.13;;;;;;;;;;5110619;28;20508;-76
2023/11/14 02:13:16;;;;;;;21.47;19.50;;;;;;;;;;5110489;28;20495;-76
2023/11/14 02:15:44;;;;;;;20.77;18.77;;;;;;;;;;5109710;28;20816;-77
2023/11/14 02:18:12;;;;;;;20.43;18.37;;;;;;;;;;5110572;28;20466;-76
2023/11/14 02:20:39;;;;;;;22.90;18.50;;;;;;;;;;5110326;28;20441;-78
2023/11/14 02:23:11;;;;;;;22.30;20.00;;;;;;;;;;5110216;28;20467;-76
2023/11/14 02:25:39;;;;;;;25.90;19.93;;;;;;;;;;5109816;28;20460;-76
2023/11/14 02:28:07;;;;;;;21.90;19.97;;;;;;;;;;5111032;28;20465;-75
2023/11/14 02:30:34;;;;;;;29.00;20.43;;;;;;;;;;5110649;28;20438;-77
2023/11/14 02:33:01;;;;;;;21.87;19.77;;;;;;;;;;5111047;28;20555;-76
2023/11/14 02:35:28;;;;;;;27.17;19.77;;;;;;;;;;5110237;28;20471;-78
2023/11/14 02:37:57;;;;;;;21.30;19.37;;;;;;;;;;5110128;28;20483;-77
2023/11/14 02:40:24;;;;;;;20.20;18.33;;;;;;;;;;5110368;28;20928;-76
2023/11/14 02:42:53;;;;;;;21.97;19.97;;;;;;;;;;5110630;28;20563;-76
2023/11/14 02:45:20;;;;;;;30.13;20.07;;;;;;;;;;5110282;28;20546;-77
2023/11/14 02:47:48;;;;;;;21.77;19.80;;;;;;;;;;5110631;28;20487;-76
2023/11/14 02:50:22;;;;;;;22.17;20.40;;;;;;;;;;5127173;27;20523;-77
2023/11/14 02:52:49;;;;;;;21.20;19.20;;;;;;;;;;5131108;27;20480;-76
2023/11/14 02:55:16;;;;;;;21.50;19.40;;;;;;;;;;5109681;28;21003;-77
2023/11/14 02:57:43;;;;;;;34.03;19.67;;;;;;;;;;5109922;28;20474;-76
2023/11/14 03:00:15;;;;;;;28.73;20.50;;;;;;;;;;5109330;28;21481;-77
2023/11/14 03:02:43;;;;;;;28.43;20.13;;;;;;;;;;5110205;28;20526;-76
2023/11/14 03:05:10;;;;;;;21.20;19.30;;;;;;;;;;5109787;28;20530;-76
2023/11/14 03:07:37;;;;;;;22.20;19.83;;;;;;;;;;5110515;28;20471;-76
2023/11/14 03:10:04;;;;;;;20.93;18.97;;;;;;;;;;5110327;28;20985;-76
2023/11/14 03:12:31;;;;;;;20.67;18.60;;;;;;;;;;5109605;28;20519;-77
2023/11/14 03:14:58;;;;;;;23.93;20.23;;;;;;;;;;5109982;28;20444;-77
2023/11/14 03:17:28;;;;;;;22.43;19.90;;;;;;;;;;5110246;28;20467;-76
2023/11/14 03:19:55;;;;;;;22.47;19.80;;;;;;;;;;5110744;28;20455;-77
2023/11/14 03:22:22;;;;;;;22.07;19.80;;;;;;;;;;5110067;28;20850;-77
2023/11/14 03:24:50;;;;;;;19.93;18.40;;;;;;;;;;5108860;28;21147;-77
2023/11/14 03:27:17;;;;;;;22.13;19.37;;;;;;;;;;5112010;28;20442;-76
2023/11/14 03:29:45;;;;;;;22.57;20.30;;;;;;;;;;5114964;28;20439;-76
2023/11/14 03:32:12;;;;;;;23.43;20.73;;;;;;;;;;5114603;28;20479;-76
2023/11/14 03:34:41;;;;;;;25.07;19.50;;;;;;;;;;5114039;28;20458;-76
2023/11/14 03:37:08;;;;;;;25.70;21.30;;;;;;;;;;5114508;28;20452;-76
2023/11/14 03:39:35;;;;;;;21.83;19.63;;;;;;;;;;5114331;28;20452;-76
2023/11/14 03:42:02;;;;;;;23.10;20.80;;;;;;;;;;5114175;28;20452;-76
2023/11/14 03:44:29;;;;;;;22.63;19.10;;;;;;;;;;5113691;28;20451;-76
2023/11/14 03:46:56;;;;;;;20.17;18.37;;;;;;;;;;5114251;28;20439;-77
2023/11/14 03:49:23;;;;;;;22.27;19.77;;;;;;;;;;5114491;28;20447;-77
2023/11/14 03:51:52;;;;;;;21.27;19.27;;;;;;;;;;5114505;28;20455;-76
2023/11/14 03:54:19;;;;;;;22.27;19.07;;;;;;;;;;5113892;28;20448;-76
2023/11/14 03:56:46;;;;;;;28.93;18.93;;;;;;;;;;5113514;28;20596;-77
2023/11/14 03:59:13;;;;;;;27.27;22.03;;;;;;;;;;5114270;28;20468;-76
2023/11/14 04:01:40;;;;;;;24.53;22.00;;;;;;;;;;5114153;28;20444;-77
2023/11/14 04:04:07;;;;;;;36.90;28.87;;;;;;;;;;5113433;28;20508;-77
2023/11/14 04:06:34;;;;;;;34.87;26.17;;;;;;;;;;5113492;28;20500;-77
2023/11/14 04:09:03;;;;;;;58.53;40.63;;;;;;;;;;5114040;28;20564;-78
2023/11/14 04:11:30;;;;;;;115.60;75.67;;;;;;;;;;5114037;28;20508;-76
2023/11/14 04:13:57;;;;;;;59.97;47.83;;;;;;;;;;5113116;28;20496;-76
2023/11/14 04:16:24;;;;;;;23.47;21.00;;;;;;;;;;5113746;28;20928;-78
2023/11/14 04:18:51;;;;;;;32.27;26.23;;;;;;;;;;5114131;28;20463;-76
2023/11/14 04:21:19;;;;;;;29.03;25.93;;;;;;;;;;5113948;28;20440;-76
2023/11/14 04:23:46;;;;;;;45.40;28.20;;;;;;;;;;5113680;28;20475;-77
2023/11/14 04:26:15;;;;;;;23.77;21.43;;;;;;;;;;5113660;28;20846;-76
2023/11/14 04:28:42;;;;;;;24.17;21.70;;;;;;;;;;5113264;28;20547;-76
2023/11/14 04:31:09;;;;;;;25.70;20.33;;;;;;;;;;5113612;28;20447;-76
2023/11/14 04:33:36;;;;;;;47.47;37.33;;;;;;;;;;5113114;28;20487;-77
2023/11/14 04:36:03;;;;;;;24.47;21.93;;;;;;;;;;5112729;28;20519;-77
2023/11/14 04:38:31;;;;;;;23.00;19.97;;;;;;;;;;5112320;28;20499;-77
2023/11/14 04:40:58;;;;;;;30.83;19.97;;;;;;;;;;5112973;28;20451;-77
2023/11/14 04:43:26;;;;;;;20.90;19.00;;;;;;;;;;5113219;28;20436;-75
2023/11/14 04:45:54;;;;;;;22.77;20.60;;;;;;;;;;5112295;28;20446;-76
2023/11/14 04:48:21;;;;;;;20.30;18.33;;;;;;;;;;5113043;28;20467;-76
2023/11/14 04:50:48;;;;;;;22.97;20.77;;;;;;;;;;5112911;28;20489;-76
2023/11/14 04:53:15;;;;;;;25.77;19.63;;;;;;;;;;5112706;28;20491;-77
2023/11/14 04:55:42;;;;;;;20.83;18.63;;;;;;;;;;5112262;28;20444;-75
2023/11/14 04:58:09;;;;;;;26.03;20.57;;;;;;;;;;5113010;28;20548;-77
2023/11/14 05:00:39;;;;;;;19.70;18.10;;;;;;;;;;5112908;28;20470;-76
2023/11/14 05:03:06;;;;;;;22.50;18.50;;;;;;;;;;5112945;28;20452;-76
2023/11/14 05:05:33;;;;;;;21.70;18.93;;;;;;;;;;5112360;28;20841;-77
2023/11/14 05:08:00;;;;;;;30.70;21.87;;;;;;;;;;5118042;27;20494;-76
2023/11/14 05:10:28;;;;;;;29.93;20.57;;;;;;;;;;5112978;28;21041;-77
2023/11/14 05:12:56;;;;;;;22.97;20.30;;;;;;;;;;5112657;28;20480;-76
2023/11/14 05:15:23;;;;;;;21.90;19.67;;;;;;;;;;5111978;28;20546;-76
2023/11/14 05:17:51;;;;;;;26.37;19.43;;;;;;;;;;5112195;28;20485;-76
2023/11/14 05:20:19;;;;;;;27.30;20.57;;;;;;;;;;5112338;28;20940;-76
2023/11/14 05:22:46;;;;;;;26.53;19.13;;;;;;;;;;5113689;27;20464;-77
2023/11/14 05:25:13;;;;;;;24.93;20.83;;;;;;;;;;5111990;28;20448;-76
2023/11/14 05:27:40;;;;;;;23.60;20.67;;;;;;;;;;5112420;27;20467;-77
2023/11/14 05:30:09;;;;;;;23.70;19.07;;;;;;;;;;5112237;28;20462;-77
2023/11/14 05:32:36;;;;;;;25.77;20.20;;;;;;;;;;5112094;28;20451;-77
2023/11/14 05:35:05;;;;;;;26.60;20.33;;;;;;;;;;5111504;28;20478;-76
2023/11/14 05:37:32;;;;;;;21.30;19.00;;;;;;;;;;5112065;28;20464;-75
2023/11/14 05:39:59;;;;;;;29.77;19.73;;;;;;;;;;5111930;28;20475;-76
2023/11/14 05:42:26;;;;;;;21.83;19.87;;;;;;;;;;5111639;28;20452;-75
2023/11/14 05:44:53;;;;;;;21.40;19.20;;;;;;;;;;5111275;28;20448;-75
2023/11/14 05:47:20;;;;;;;25.17;20.73;;;;;;;;;;5111541;28;20478;-75
2023/11/14 05:49:48;;;;;;;20.53;18.53;;;;;;;;;;5111216;28;20440;-76
2023/11/14 05:52:16;;;;;;;20.93;19.10;;;;;;;;;;5111951;28;20447;-75
2023/11/14 05:54:43;;;;;;;21.50;19.33;;;;;;;;;;5111260;28;20475;-77
2023/11/14 05:57:10;;;;;;;32.70;19.60;;;;;;;;;;5110291;27;21049;-76
2023/11/14 05:59:37;;;;;;;22.33;19.80;;;;;;;;;;5111342;27;20452;-76
2023/11/14 06:02:05;;;;;;;24.53;19.90;;;;;;;;;;5120810;27;20469;-78
2023/11/14 06:04:32;;;;;;;33.93;21.50;;;;;;;;;;5112379;27;21268;-77
2023/11/14 06:06:59;;;;;;;22.20;20.07;;;;;;;;;;5111821;28;20444;-77
2023/11/14 06:09:28;;;;;;;28.60;21.20;;;;;;;;;;5111686;28;20440;-75
2023/11/14 06:11:55;;;;;;;27.53;21.50;;;;;;;;;;5111444;28;20455;-76
2023/11/14 06:14:22;;;;;;;22.80;20.73;;;;;;;;;;5112151;27;20495;-77
2023/11/14 06:16:49;;;;;;;22.33;20.00;;;;;;;;;;5112765;27;20525;-76
2023/11/14 06:19:16;;;;;;;22.93;19.30;;;;;;;;;;5110857;28;20538;-76
2023/11/14 06:21:43;;;;;;;24.10;18.70;;;;;;;;;;5121221;27;20437;-76
2023/11/14 06:24:11;;;;;;;21.50;19.47;;;;;;;;;;5120838;27;20445;-75
2023/11/14 06:26:39;;;;;;;20.67;18.87;;;;;;;;;;5131880;27;20435;-76
2023/11/14 06:29:06;;;;;;;21.80;19.50;;;;;;;;;;5110835;28;20475;-77
2023/11/14 06:31:33;;;;;;;20.77;19.23;;;;;;;;;;5110954;28;20825;-76
2023/11/14 06:34:00;;;;;;;22.50;20.23;;;;;;;;;;5109942;28;20458;-77
2023/11/14 06:36:27;;;;;;;19.77;18.10;;;;;;;;;;5126350;27;20449;-75
2023/11/14 06:38:54;;;;;;;21.07;18.77;;;;;;;;;;5131506;27;20494;-76
2023/11/14 06:41:21;;;;;;;21.07;18.93;;;;;;;;;;5131628;27;20459;-78
2023/11/14 06:43:50;;;;;;;23.03;19.43;;;;;;;;;;5130958;27;20424;-76
2023/11/14 06:46:17;;;;;;;20.23;18.43;;;;;;;;;;5130704;27;20466;-75
2023/11/14 06:48:44;;;;;;;19.30;18.10;;;;;;;;;;5130988;27;20853;-76
2023/11/14 06:51:11;;;;;;;35.00;21.30;;;;;;;;;;5130851;27;20458;-76
2023/11/14 06:53:38;;;;;;;22.10;19.57;;;;;;;;;;5123361;27;20567;-77
2023/11/14 06:56:05;;;;;;;21.73;19.37;;;;;;;;;;5110136;28;20447;-77
2023/11/14 06:58:34;;;;;;;21.10;18.83;;;;;;;;;;5110085;28;20475;-75
2023/11/14 07:01:03;;;;;;;24.83;19.47;;;;;;;;;;5109840;28;20452;-78
2023/11/14 07:03:31;;;;;;;26.43;18.30;;;;;;;;;;5110606;28;20440;-75
2023/11/14 07:05:58;;;;;;;22.87;19.90;;;;;;;;;;5110076;28;20537;-75
2023/11/14 07:08:25;;;;;;;23.60;19.60;;;;;;;;;;5110615;28;20456;-77
2023/11/14 07:10:52;;;;;;;24.30;20.70;;;;;;;;;;5110205;28;20456;-77
2023/11/14 07:13:19;;;;;;;23.87;20.00;;;;;;;;;;5109847;28;21001;-78
2023/11/14 07:15:47;;;;;;;22.87;20.57;;;;;;;;;;5109462;28;20463;-76
2023/11/14 07:18:15;;;;;;;21.03;18.90;;;;;;;;;;5110192;28;21027;-77
2023/11/14 07:20:42;;;;;;;21.50;19.37;;;;;;;;;;5110028;28;20440;-77
2023/11/14 07:23:11;;;;;;;22.10;19.90;;;;;;;;;;5110819;28;20443;-77
2023/11/14 07:25:43;;;;;;;20.53;18.73;;;;;;;;;;5110211;28;20535;-76
2023/11/14 07:28:10;;;;;;;26.83;22.30;;;;;;;;;;5110630;28;20547;-77
2023/11/14 07:30:37;;;;;;;21.70;19.43;;;;;;;;;;5110318;28;20506;-77
2023/11/14 07:33:05;;;;;;;24.53;21.90;;;;;;;;;;5110229;28;20870;-77
2023/11/14 07:35:37;;;;;;;34.43;22.53;;;;;;;;;;5109849;28;20455;-75
2023/11/14 07:38:04;;;;;;;26.30;21.20;;;;;;;;;;5110202;28;20467;-77
2023/11/14 07:40:32;;;;;;;33.03;22.20;;;;;;;;;;5110159;28;20491;-76
2023/11/14 07:43:00;;;;;;;31.37;21.77;;;;;;;;;;5109770;28;21227;-76
2023/11/14 07:45:28;;;;;;;23.40;21.20;;;;;;;;;;5109649;28;20483;-77
2023/11/14 07:47:55;;;;;;;31.07;21.20;;;;;;;;;;5109646;28;20499;-76
2023/11/14 07:50:22;;;;;;;23.17;20.13;;;;;;;;;;5110340;28;20447;-77
2023/11/14 07:52:50;;;;;;;22.93;20.53;;;;;;;;;;5109925;28;20932;-76
2023/11/14 07:55:17;;;;;;;26.23;21.37;;;;;;;;;;5109331;28;20479;-76
2023/11/14 07:57:45;;;;;;;25.03;20.77;;;;;;;;;;5109724;28;20463;-76
2023/11/14 08:00:12;;;;;;;24.47;21.63;;;;;;;;;;5109926;28;20452;-75
2023/11/14 08:02:39;;;;;;;25.50;22.97;;;;;;;;;;5109721;28;21089;-76
2023/11/14 08:05:08;;;;;;;26.10;19.83;;;;;;;;;;5109213;28;20839;-76
2023/11/14 08:07:35;;;;;;;23.33;21.27;;;;;;;;;;5109187;28;20521;-77
2023/11/14 08:10:03;;;;;;;28.60;21.27;;;;;;;;;;5109395;28;20974;-77
2023/11/14 08:12:30;;;;;;;30.00;21.53;;;;;;;;;;5110281;28;20448;-77
2023/11/14 08:14:58;;;;;;;30.17;20.23;;;;;;;;;;5112763;28;20986;-77
2023/11/14 08:17:27;;;;;;;26.37;21.97;;;;;;;;;;5113670;28;20472;-75
2023/11/14 08:19:54;;;;;;;22.87;20.47;;;;;;;;;;5113730;28;20406;-76
2023/11/14 08:22:22;;;;;;;26.07;22.87;;;;;;;;;;5114030;28;20446;-76
2023/11/14 08:24:49;;;;;;;26.03;21.37;;;;;;;;;;5113053;28;20483;-76
2023/11/14 08:27:17;;;;;;;23.27;20.60;;;;;;;;;;5113511;28;20468;-77
2023/11/14 08:29:47;;;;;;;31.97;22.43;;;;;;;;;;5113226;28;20832;-76
2023/11/14 08:32:16;;;;;;;22.60;20.30;;;;;;;;;;5113968;28;20467;-77
2023/11/14 08:34:43;;;;;;;23.67;21.13;;;;;;;;;;5119130;27;21025;-76
2023/11/14 08:37:10;;;;;;;32.47;21.40;;;;;;;;;;5114765;27;20558;-76
2023/11/14 08:39:37;;;;;;;24.43;19.77;;;;;;;;;;5113177;28;20443;-75
2023/11/14 08:42:06;;;;;;;21.83;19.57;;;;;;;;;;5113286;28;20459;-76
2023/11/14 08:44:34;;;;;;;24.37;20.50;;;;;;;;;;5112533;28;20447;-76
2023/11/14 08:47:01;;;;;;;21.20;19.50;;;;;;;;;;5113097;28;20443;-77
2023/11/14 08:49:29;;;;;;;22.27;19.93;;;;;;;;;;5112950;28;20471;-77
2023/11/14 08:51:57;;;;;;;23.73;20.73;;;;;;;;;;5113224;28;20455;-75
2023/11/14 08:54:24;;;;;;;25.23;21.90;;;;;;;;;;5112251;28;21126;-77
2023/11/14 08:56:51;;;;;;;24.07;21.80;;;;;;;;;;5112882;28;20454;-76
2023/11/14 08:59:18;;;;;;;22.20;19.97;;;;;;;;;;5112743;28;20440;-76
2023/11/14 09:01:47;;;;;;;24.47;22.30;;;;;;;;;;5112847;28;20784;-76
2023/11/14 09:04:14;;;;;;;24.07;21.10;;;;;;;;;;5112302;28;20890;-77
2023/11/14 09:06:41;;;;;;;25.80;22.00;;;;;;;;;;5125530;27;20949;-76
2023/11/14 09:09:09;;;;;;;24.57;21.80;;;;;;;;;;5133057;27;20463;-76
2023/11/14 09:11:36;;;;;;;22.50;20.33;;;;;;;;;;5132917;27;20951;-76
2023/11/14 09:14:03;;;;;;;22.67;20.93;;;;;;;;;;5132437;27;20898;-75
2023/11/14 09:16:30;;;;;;;25.30;23.00;;;;;;;;;;5133218;27;20454;-76
2023/11/14 09:18:59;;;;;;;28.00;21.53;;;;;;;;;;5133770;27;20459;-79
2023/11/14 09:21:26;;;;;;;25.70;23.03;;;;;;;;;;5138318;27;20523;-81
2023/11/14 09:23:54;;;;;;;21.37;19.80;;;;;;;;;;5139348;27;20439;-79
2023/11/14 09:26:23;;;;;;;21.97;19.97;;;;;;;;;;5137837;27;20866;-81
2023/11/14 09:28:51;;;;;;;26.43;21.10;;;;;;;;;;5138966;27;20504;-80
2023/11/14 09:31:18;;;;;;;22.00;20.20;;;;;;;;;;5138249;27;20443;-79
2023/11/14 09:33:45;;;;;;;21.70;20.00;;;;;;;;;;5121431;27;20448;-81
2023/11/14 09:36:14;;;;;;;32.00;21.60;;;;;;;;;;5118875;28;20452;-81
2023/11/14 09:38:41;;;;;;;24.03;19.93;;;;;;;;;;5118213;28;20476;-81
2023/11/14 09:41:08;;;;;;;23.30;21.13;;;;;;;;;;5116517;28;20503;-82
2023/11/14 09:43:35;;;;;;;20.90;18.97;;;;;;;;;;5118808;28;21011;-81
2023/11/14 09:46:03;;;;;;;24.63;22.10;;;;;;;;;;5117824;28;20436;-81
2023/11/14 09:48:30;;;;;;;22.37;20.50;;;;;;;;;;5117479;28;20456;-80
2023/11/14 09:50:58;;;;;;;21.27;19.23;;;;;;;;;;5118266;28;20464;-80
2023/11/14 09:53:27;;;;;;;23.30;21.20;;;;;;;;;;5118879;28;20439;-81
2023/11/14 09:55:55;;;;;;;22.27;20.47;;;;;;;;;;5118309;28;20475;-80
2023/11/14 09:58:22;;;;;;;22.37;20.17;;;;;;;;;;5118826;28;20517;-82
2023/11/14 10:00:49;;;;;;;28.23;21.53;;;;;;;;;;5118129;28;20459;-81
2023/11/14 10:03:16;;;;;;;31.27;21.37;;;;;;;;;;5119436;28;20444;-80
2023/11/14 10:05:44;;;;;;;25.67;19.80;;;;;;;;;;5118253;28;20769;-82
2023/11/14 10:08:14;;;;;;;24.27;21.73;;;;;;;;;;5118339;28;20468;-80
2023/11/14 10:13:47;;;;;;;24.33;22.33;;;;;;;;;;5116559;28;20445;-80
2023/11/14 10:16:18;;;;;;;26.57;23.93;;;;;;;;;;5118780;28;20451;-82
2023/11/14 10:18:45;;;;;;;34.63;22.50;;;;;;;;;;5118517;28;20467;-80
2023/11/14 10:21:26;;;;;;;26.83;23.17;;;;;;;;;;5118136;28;20448;-82
2023/11/14 10:23:54;;;;;;;33.80;25.87;;;;;;;;;;5117893;28;20414;-80
2023/11/14 10:26:22;;;;;;;23.03;20.80;;;;;;;;;;5117939;28;20932;-81
2023/11/14 10:28:54;;;;;;;27.90;23.10;;;;;;;;;;5116418;28;20449;-81
2023/11/14 10:31:34;;;;;;;21.53;19.50;;;;;;;;;;5117991;28;20792;-80
2023/11/14 10:34:01;;;;;;;22.27;20.67;;;;;;;;;;5117978;28;21133;-82
2023/11/14 10:36:28;;;;;;;24.83;22.33;;;;;;;;;;5118006;28;20444;-81
2023/11/14 10:39:30;;;;;;;23.80;21.40;;;;;;;;;;5117210;28;20479;-81
2023/11/14 10:41:58;;;;;;;22.53;20.60;;;;;;;;;;5116527;28;20461;-81
2023/11/14 10:44:26;;;;;;;25.23;21.43;;;;;;;;;;5118019;28;20444;-80
2023/11/14 10:46:54;;;;;;;30.53;22.03;;;;;;;;;;5118584;28;20455;-79
2023/11/14 10:49:22;;;;;;;22.47;20.20;;;;;;;;;;5117254;28;20472;-80
2023/11/14 10:54:53;;;;;;;24.53;22.20;;;;;;;;;;5115121;28;21024;-81
2023/11/14 10:57:21;;;;;;;23.70;21.10;;;;;;;;;;5126845;27;20508;-79
2023/11/14 10:59:49;;;;;;;40.47;23.73;;;;;;;;;;5138422;27;20477;-80
2023/11/14 11:02:17;;;;;;;20.10;18.50;;;;;;;;;;5138380;27;20442;-81
2023/11/14 11:04:44;;;;;;;24.00;21.50;;;;;;;;;;5137896;27;20443;-80
2023/11/14 11:07:11;;;;;;;23.97;20.30;;;;;;;;;;5138684;27;20467;-80
2023/11/14 11:09:38;;;;;;;20.10;18.27;;;;;;;;;;5138239;27;20446;-81
2023/11/14 11:12:07;;;;;;;22.23;20.00;;;;;;;;;;5137925;27;20454;-80
2023/11/14 11:14:34;;;;;;;20.47;19.10;;;;;;;;;;5129881;27;20474;-76
2023/11/14 11:17:03;;;;;;;25.47;21.43;;;;;;;;;;5120013;27;20463;-77
2023/11/14 11:19:30;;;;;;;25.40;22.00;;;;;;;;;;5115405;28;20458;-76
2023/11/14 11:22:03;;;;;;;22.10;19.93;;;;;;;;;;5130043;28;20486;-77
2023/11/14 11:24:30;;;;;;;23.37;21.07;;;;;;;;;;5110326;28;20444;-77
2023/11/14 11:27:15;;;;;;;20.23;18.80;;;;;;;;;;5111481;28;20448;-76
2023/11/14 11:29:45;;;;;;;21.77;20.13;;;;;;;;;;5111513;28;20516;-83
2023/11/14 11:32:31;;;;;;;20.80;19.13;;;;;;;;;;5112206;28;20508;-83
2023/11/14 11:35:18;;;;;;;24.63;21.03;;;;;;;;;;5109891;28;20483;-74
2023/11/14 11:37:45;;;;;;;20.27;18.67;;;;;;;;;;5111641;28;21048;-75
2023/11/14 11:40:12;;;;;;;21.20;18.80;;;;;;;;;;5115783;28;20459;-77
2023/11/14 11:42:39;;;;;;;22.23;20.43;;;;;;;;;;5111847;28;20454;-76
2023/11/14 11:45:07;;;;;;;22.97;20.23;;;;;;;;;;5110882;28;20484;-77
2023/11/14 11:47:36;;;;;;;23.83;21.30;;;;;;;;;;5111208;28;21285;-76
2023/11/14 11:50:19;;;;;;;25.27;22.60;;;;;;;;;;5114193;28;20463;-76
2023/11/14 11:52:58;;;;;;;25.50;23.33;;;;;;;;;;5114990;28;20428;-77
2023/11/14 11:55:25;;;;;;;23.30;20.90;;;;;;;;;;5114305;28;20525;-77
2023/11/14 11:57:59;;;;;;;22.33;20.03;;;;;;;;;;5115254;28;20529;-76
2023/11/14 12:00:26;;;;;;;26.63;21.53;;;;;;;;;;5114293;28;20550;-75
2023/11/14 12:02:56;;;;;;;21.83;19.67;;;;;;;;;;5114285;28;20487;-75
2023/11/14 12:05:24;;;;;;;24.57;20.63;;;;;;;;;;5113816;28;20483;-77
2023/11/14 12:07:51;;;;;;;24.50;20.40;;;;;;;;;;5115584;28;20471;-77
2023/11/14 12:10:18;;;;;;;24.77;20.53;;;;;;;;;;5116438;28;20830;-79
2023/11/14 12:12:48;;;;;;;22.77;20.73;;;;;;;;;;5119439;28;20422;-79
2023/11/14 12:15:20;;;;;;;24.77;22.77;;;;;;;;;;5117547;28;20486;-84
2023/11/14 12:17:48;;;;;;;23.77;21.27;;;;;;;;;;5118725;28;20559;-78
2023/11/14 12:20:16;;;;;;;21.83;19.93;;;;;;;;;;5117297;28;20448;-79
2023/11/14 12:22:43;;;;;;;25.70;22.57;;;;;;;;;;5116905;28;20998;-78
2023/11/14 12:25:11;;;;;;;22.80;20.67;;;;;;;;;;5116788;28;20533;-79
2023/11/14 12:27:39;;;;;;;20.97;19.37;;;;;;;;;;5117835;28;20457;-80
2023/11/14 12:30:07;;;;;;;22.30;20.23;;;;;;;;;;5117776;28;20510;-78
2023/11/14 12:32:34;;;;;;;21.60;19.50;;;;;;;;;;5116909;28;20464;-79
2023/11/14 12:35:01;;;;;;;23.17;20.80;;;;;;;;;;5116660;28;20469;-80
2023/11/14 12:37:29;;;;;;;23.47;21.00;;;;;;;;;;5117830;27;20468;-80
2023/11/14 12:40:05;;;;;;;22.20;20.10;;;;;;;;;;5117817;28;20593;-80
2023/11/14 12:42:32;;;;;;;22.03;19.73;;;;;;;;;;5117205;28;20502;-78
2023/11/14 12:45:00;;;;;;;24.57;20.57;;;;;;;;;;5116934;28;20497;-79
2023/11/14 12:47:27;;;;;;;21.37;19.53;;;;;;;;;;5117230;28;20494;-77
2023/11/14 12:49:54;;;;;;;22.07;19.87;;;;;;;;;;5115708;28;20803;-77
2023/11/14 12:52:24;;;;;;;22.93;20.83;;;;;;;;;;5132648;27;20475;-78
2023/11/14 12:54:53;;;;;;;22.13;20.27;;;;;;;;;;5123895;27;20910;-80
2023/11/14 12:57:20;;;;;;;21.70;19.40;;;;;;;;;;5131046;27;20471;-79
2023/11/14 12:59:47;;;;;;;20.83;19.23;;;;;;;;;;5136520;27;20531;-78
2023/11/14 13:02:14;;;;;;;22.60;20.57;;;;;;;;;;5119136;27;20463;-78
2023/11/14 13:04:41;;;;;;;20.40;18.87;;;;;;;;;;5137493;27;20507;-78
2023/11/14 13:07:08;;;;;;;21.83;19.80;;;;;;;;;;5125927;27;20452;-77
2023/11/14 13:09:36;;;;;;;22.03;20.00;;;;;;;;;;5115521;28;20435;-79
2023/11/14 13:12:05;;;;;;;22.20;20.20;;;;;;;;;;5115453;28;20932;-77
2023/11/14 13:14:32;;;;;;;22.43;20.40;;;;;;;;;;5115207;28;20452;-80
2023/11/14 13:16:59;;;;;;;22.23;20.27;;;;;;;;;;5115033;28;20503;-80
2023/11/14 13:19:26;;;;;;;23.30;21.10;;;;;;;;;;5115810;28;20456;-77
2023/11/14 13:21:53;;;;;;;21.47;19.87;;;;;;;;;;5115584;28;20909;-77
2023/11/14 13:24:21;;;;;;;21.37;19.53;;;;;;;;;;5115224;28;20448;-77
2023/11/14 13:26:48;;;;;;;23.17;20.97;;;;;;;;;;5119167;27;20561;-77
2023/11/14 13:29:16;;;;;;;22.47;20.03;;;;;;;;;;5136134;27;20450;-79
2023/11/14 13:31:43;;;;;;;21.20;19.20;;;;;;;;;;5136410;27;20888;-78
2023/11/14 13:34:10;;;;;;;21.23;19.20;;;;;;;;;;5135252;27;20500;-78
2023/11/14 13:36:39;;;;;;;21.47;19.97;;;;;;;;;;5129912;27;20500;-79
2023/11/14 13:39:06;;;;;;;22.73;20.80;;;;;;;;;;5115643;28;20449;-77
2023/11/14 13:41:33;;;;;;;20.90;19.13;;;;;;;;;;5115119;28;20946;-79
2023/11/14 13:44:01;;;;;;;22.50;20.50;;;;;;;;;;5114865;28;20424;-78
2023/11/14 13:46:30;;;;;;;22.53;20.60;;;;;;;;;;5134351;27;20499;-78
2023/11/14 13:48:57;;;;;;;23.03;21.10;;;;;;;;;;5131101;27;20495;-78
2023/11/14 13:51:24;;;;;;;22.33;20.33;;;;;;;;;;5124145;27;20471;-76
2023/11/14 13:53:51;;;;;;;21.40;19.70;;;;;;;;;;5118615;27;20441;-80
2023/11/14 13:56:19;;;;;;;21.10;19.57;;;;;;;;;;5117422;27;20497;-78
2023/11/14 13:58:46;;;;;;;21.50;19.43;;;;;;;;;;5116533;27;20498;-77
2023/11/14 14:01:14;;;;;;;23.90;21.77;;;;;;;;;;5135014;27;20922;-78
2023/11/14 14:03:42;;;;;;;22.23;20.63;;;;;;;;;;5136382;27;20479;-79
2023/11/14 14:06:09;;;;;;;22.57;20.77;;;;;;;;;;5128943;27;20462;-79
2023/11/14 14:08:37;;;;;;;22.27;20.23;;;;;;;;;;5113753;28;20882;-77
2023/11/14 14:11:06;;;;;;;23.30;21.20;;;;;;;;;;5117507;27;20460;-77
2023/11/14 14:13:34;;;;;;;21.37;19.60;;;;;;;;;;5115565;27;20422;-78
2023/11/14 14:16:02;;;;;;;21.77;20.10;;;;;;;;;;5134449;27;20506;-78
2023/11/14 14:18:31;;;;;;;32.90;29.73;;;;;;;;;;5134693;27;20530;-78
2023/11/14 14:21:02;;;;;;;20.03;18.70;;;;;;;;;;5134343;27;20526;-78
2023/11/14 14:23:30;;;;;;;21.37;19.37;;;;;;;;;;5127032;27;20491;-78
2023/11/14 14:25:57;;;;;;;25.17;22.93;;;;;;;;;;5129638;27;20938;-79